Castana, Iowa
Current Conditions -  °F | °C
As of 6:54 AM on Monday 20 Oct 2014 (Local Time) from KTQE Reporting Station
Clear Clear  
Wind Chill: 41°   Ceiling: Unl
Heat Index: 44°   Visibility: 10mi
Dew Point: 39°   Wind: 6mph
Humidity: 82%   Direction: 360°N
Pressure: 30.05"   Gusts: NA
Location:  42.07°N, 95.91°W
Report Text: KTQE 201154Z AUTO 36005KT 10SM CLR 07/04 A3005 RMK AO2 SLP173 T00670039 10094 20061 53020
Loading
Personal Weather Stations






























Interactive Weather Map
Tropical Storm Tracking
New forecast layout! Learn more

10-Day Weather Forecast

Advertisements
Track Severe Weather on mobile